createdAt,value
2018-07-27T00:02:09.858Z,30.40
2018-07-27T00:04:39.309Z,31.63
2018-07-27T00:07:08.828Z,31.00
2018-07-27T00:09:38.300Z,32.23
2018-07-27T00:12:07.154Z,32.90
2018-07-27T00:14:36.611Z,32.40
2018-07-27T00:17:06.238Z,35.57
2018-07-27T00:19:35.710Z,32.67
2018-07-27T00:22:05.398Z,32.93
2018-07-27T00:24:34.850Z,32.10
2018-07-27T00:27:04.981Z,33.40
2018-07-27T00:29:34.929Z,32.10
2018-07-27T00:32:04.472Z,33.23
2018-07-27T00:34:33.870Z,33.37
2018-07-27T00:37:03.278Z,32.00
2018-07-27T00:39:32.625Z,31.73
2018-07-27T00:42:02.099Z,32.70
2018-07-27T00:44:31.512Z,32.97
2018-07-27T00:47:00.897Z,29.37
2018-07-27T00:49:30.309Z,29.73
2018-07-27T00:51:59.790Z,31.50
2018-07-27T00:54:29.219Z,27.67
2018-07-27T00:56:58.632Z,28.60
2018-07-27T00:59:28.069Z,28.40
2018-07-27T01:01:56.933Z,28.53
2018-07-27T01:04:25.934Z,30.50
2018-07-27T01:06:55.346Z,30.27
2018-07-27T01:09:24.787Z,26.80
2018-07-27T01:11:54.151Z,28.33
2018-07-27T01:14:23.604Z,29.30
2018-07-27T01:16:53.034Z,30.40
2018-07-27T01:19:22.406Z,31.83
2018-07-27T01:21:51.856Z,32.17
2018-07-27T01:24:21.304Z,33.43
2018-07-27T01:26:50.694Z,31.80
2018-07-27T01:29:19.938Z,35.60
2018-07-27T01:31:49.335Z,33.23
2018-07-27T01:34:18.702Z,33.13
2018-07-27T01:36:48.137Z,31.53
2018-07-27T01:39:17.569Z,31.30
2018-07-27T01:41:47.019Z,30.77
2018-07-27T01:44:16.477Z,31.33
2018-07-27T01:46:45.894Z,30.43
2018-07-27T01:49:14.744Z,31.67
2018-07-27T01:51:44.357Z,31.20
2018-07-27T01:54:13.828Z,30.80
2018-07-27T01:56:43.281Z,32.40
2018-07-27T01:59:12.734Z,31.50
2018-07-27T02:01:42.119Z,32.50
2018-07-27T02:04:11.010Z,33.73
2018-07-27T02:06:39.889Z,34.93
2018-07-27T02:09:09.649Z,34.40
2018-07-27T02:11:39.144Z,32.40
2018-07-27T02:14:08.587Z,36.20
2018-07-27T02:16:37.974Z,33.63
2018-07-27T02:19:07.455Z,32.03
2018-07-27T02:21:37.302Z,32.10
2018-07-27T02:24:06.711Z,34.47
2018-07-27T02:26:36.151Z,36.43
2018-07-27T02:29:05.584Z,34.40
2018-07-27T02:31:35.016Z,33.87
2018-07-27T02:34:04.470Z,30.70
2018-07-27T02:36:33.907Z,31.03
2018-07-27T02:39:03.471Z,31.87
2018-07-27T02:41:32.871Z,32.73
2018-07-27T02:44:01.729Z,34.57
2018-07-27T02:46:31.097Z,33.43
2018-07-27T02:49:00.499Z,34.33
2018-07-27T02:51:30.069Z,33.80
2018-07-27T02:53:59.474Z,34.47
2018-07-27T02:56:28.940Z,31.70
2018-07-27T02:58:58.474Z,30.27
2018-07-27T03:01:28.022Z,30.13
2018-07-27T03:03:57.558Z,32.30
2018-07-27T03:06:27.002Z,31.37
2018-07-27T03:08:56.395Z,31.20
2018-07-27T03:11:25.217Z,31.93
2018-07-27T03:13:54.628Z,29.53
2018-07-27T03:16:24.021Z,30.80
2018-07-27T03:18:53.440Z,30.70
2018-07-27T03:21:22.887Z,30.20
2018-07-27T03:23:51.882Z,33.53
2018-07-27T03:26:20.658Z,33.70
2018-07-27T03:28:49.981Z,32.83
2018-07-27T03:31:18.754Z,31.23
2018-07-27T03:33:47.567Z,31.97
2018-07-27T03:36:16.937Z,31.70
2018-07-27T03:38:46.263Z,32.67
2018-07-27T03:41:15.573Z,31.20
2018-07-27T03:43:44.946Z,29.93
2018-07-27T03:46:14.230Z,32.53
2018-07-27T03:48:43.583Z,33.20
2018-07-27T03:51:12.955Z,38.00
2018-07-27T03:53:41.799Z,35.87
2018-07-27T03:56:11.142Z,33.17
2018-07-27T03:58:39.962Z,37.10
2018-07-27T04:01:09.359Z,36.50
2018-07-27T04:03:38.650Z,35.90
2018-07-27T04:06:07.986Z,34.87
2018-07-27T04:08:37.302Z,35.30
2018-07-27T04:11:06.693Z,34.77
2018-07-27T04:13:36.015Z,38.10
2018-07-27T04:16:05.372Z,39.57
2018-07-27T04:18:34.678Z,37.33
2018-07-27T04:21:09.222Z,39.17
2018-07-27T04:23:38.683Z,38.97
2018-07-27T04:26:08.058Z,37.93
2018-07-27T04:28:37.515Z,39.03
2018-07-27T04:31:06.880Z,37.87
2018-07-27T04:33:35.690Z,38.80
2018-07-27T04:36:05.008Z,39.90
2018-07-27T04:38:34.346Z,39.10
2018-07-27T04:41:03.697Z,40.67
2018-07-27T04:43:33.225Z,41.40
2018-07-27T04:46:02.524Z,42.13
2018-07-27T04:48:31.877Z,41.53
2018-07-27T04:51:00.658Z,39.87
2018-07-27T04:53:29.954Z,40.90
2018-07-27T04:55:58.735Z,40.80
2018-07-27T04:58:28.051Z,39.93
2018-07-27T05:00:56.874Z,39.73
2018-07-27T05:03:26.261Z,41.70
2018-07-27T05:05:55.790Z,39.63
2018-07-27T05:08:25.104Z,42.70
2018-07-27T05:10:54.582Z,41.53
2018-07-27T05:13:23.920Z,41.30
2018-07-27T05:15:53.962Z,41.63
2018-07-27T05:18:22.974Z,40.70
2018-07-27T05:20:52.434Z,40.03
2018-07-27T05:23:21.318Z,42.00
2018-07-27T05:25:50.590Z,39.70
2018-07-27T05:28:19.889Z,37.83
2018-07-27T05:30:49.317Z,38.00
2018-07-27T05:33:18.646Z,38.33
2018-07-27T05:35:48.026Z,37.30
2018-07-27T05:38:17.296Z,33.17
2018-07-27T05:40:46.619Z,33.50
2018-07-27T05:43:16.023Z,30.50
2018-07-27T05:45:45.363Z,31.30
2018-07-27T05:48:14.601Z,31.47
2018-07-27T05:50:43.884Z,29.30
2018-07-27T05:53:13.195Z,28.23
2018-07-27T05:55:42.589Z,25.27
2018-07-27T05:58:11.935Z,32.50
2018-07-27T06:00:41.315Z,32.70
2018-07-27T06:03:10.751Z,34.13
2018-07-27T06:05:40.101Z,35.80
2018-07-27T06:08:09.499Z,36.33
2018-07-27T06:10:38.893Z,37.20
2018-07-27T06:13:08.397Z,33.93
2018-07-27T06:15:37.747Z,37.65
2018-07-27T06:18:07.161Z,36.20
2018-07-27T06:20:36.542Z,39.77
2018-07-27T06:23:05.845Z,36.37
2018-07-27T06:25:35.281Z,38.20
2018-07-27T06:28:04.759Z,38.33
2018-07-27T06:30:34.163Z,38.07
2018-07-27T06:33:03.538Z,38.47
2018-07-27T06:35:32.906Z,37.90
2018-07-27T06:38:05.385Z,38.67
2018-07-27T06:40:34.183Z,39.50
2018-07-27T06:43:03.504Z,39.87
2018-07-27T06:45:32.835Z,36.00
2018-07-27T06:48:02.221Z,39.03
2018-07-27T06:50:31.704Z,41.00
2018-07-27T06:53:01.094Z,39.73
2018-07-27T06:55:30.736Z,35.60
2018-07-27T06:58:00.044Z,37.43
2018-07-27T07:00:29.523Z,38.97
2018-07-27T07:02:58.887Z,38.13
2018-07-27T07:05:27.702Z,39.37
2018-07-27T07:07:57.056Z,39.23
2018-07-27T07:10:26.416Z,41.10
2018-07-27T07:12:55.759Z,42.13
2018-07-27T07:15:25.209Z,40.20
2018-07-27T07:17:54.580Z,39.57
2018-07-27T07:20:23.495Z,42.20
2018-07-27T07:22:52.999Z,41.60
2018-07-27T07:25:22.415Z,41.07
2018-07-27T07:27:52.059Z,41.20
2018-07-27T07:30:21.493Z,36.43
2018-07-27T07:32:50.912Z,35.93
2018-07-27T07:35:20.282Z,29.83
2018-07-27T07:37:49.576Z,31.03
2018-07-27T07:40:18.863Z,31.77
2018-07-27T07:42:48.291Z,32.43
2018-07-27T07:45:17.184Z,35.37
2018-07-27T07:47:46.042Z,37.80
2018-07-27T07:50:15.538Z,37.73
2018-07-27T07:52:44.904Z,37.83
2018-07-27T07:55:14.311Z,38.73
2018-07-27T07:57:43.640Z,35.43
2018-07-27T08:00:12.982Z,36.83
2018-07-27T08:02:41.809Z,37.27
2018-07-27T08:05:11.166Z,35.30
2018-07-27T08:07:40.542Z,34.23
2018-07-27T08:10:09.972Z,32.50
2018-07-27T08:12:38.851Z,35.77
2018-07-27T08:15:08.253Z,36.40
2018-07-27T08:17:37.594Z,32.03
2018-07-27T08:20:06.931Z,36.33
2018-07-27T08:22:36.258Z,36.30
2018-07-27T08:25:05.703Z,35.33
2018-07-27T08:27:35.002Z,37.47
2018-07-27T08:30:04.501Z,34.00
2018-07-27T08:32:33.835Z,34.57
2018-07-27T08:35:03.179Z,34.40
2018-07-27T08:37:32.111Z,32.23
2018-07-27T08:40:01.570Z,32.90
2018-07-27T08:42:31.019Z,30.70
2018-07-27T08:45:00.451Z,31.33
2018-07-27T08:47:29.802Z,32.88
2018-07-27T08:49:59.156Z,31.57
2018-07-27T08:52:28.612Z,31.30
2018-07-27T08:54:57.954Z,29.63
2018-07-27T08:57:27.294Z,31.03
2018-07-27T08:59:56.182Z,30.20
2018-07-27T09:02:25.600Z,30.13
2018-07-27T09:04:54.441Z,28.37
2018-07-27T09:07:23.823Z,29.00
2018-07-27T09:09:53.188Z,29.05
2018-07-27T09:12:22.147Z,27.37
2018-07-27T09:14:51.435Z,27.80
2018-07-27T09:17:20.850Z,27.53
2018-07-27T09:19:50.247Z,27.73
2018-07-27T09:22:19.592Z,30.50
2018-07-27T09:24:49.543Z,28.97
2018-07-27T09:27:18.874Z,27.60
2018-07-27T09:29:48.176Z,31.57
2018-07-27T09:32:17.496Z,30.53
2018-07-27T09:34:46.242Z,29.83
2018-07-27T09:37:15.560Z,27.20
2018-07-27T09:39:45.107Z,24.83
2018-07-27T09:42:14.455Z,29.20
2018-07-27T09:44:43.782Z,27.57
2018-07-27T09:47:13.123Z,30.37
2018-07-27T09:49:42.457Z,34.47
2018-07-27T09:52:11.836Z,35.40
2018-07-27T09:54:41.132Z,34.70
2018-07-27T09:57:10.458Z,37.77
2018-07-27T09:59:39.780Z,36.10
2018-07-27T10:02:09.226Z,35.17
2018-07-27T10:04:38.538Z,36.50
2018-07-27T10:07:08.567Z,35.27
2018-07-27T10:09:37.901Z,34.37
2018-07-27T10:12:07.258Z,36.60
2018-07-27T10:14:36.592Z,36.00
2018-07-27T10:17:06.132Z,38.20
2018-07-27T10:19:35.453Z,37.97
2018-07-27T10:22:04.767Z,34.00
2018-07-27T10:24:34.112Z,38.03
2018-07-27T10:27:03.500Z,34.30
2018-07-27T10:29:32.899Z,27.10
2018-07-27T10:32:02.275Z,30.40
2018-07-27T10:34:31.557Z,32.40
2018-07-27T10:37:00.910Z,35.07
2018-07-27T10:39:30.219Z,37.13
2018-07-27T10:41:59.477Z,32.77
2018-07-27T10:44:28.797Z,34.17
2018-07-27T10:46:58.090Z,30.33
2018-07-27T10:49:27.473Z,33.20
2018-07-27T10:51:56.801Z,33.27
2018-07-27T10:54:26.081Z,36.60
2018-07-27T10:56:55.368Z,30.33
2018-07-27T10:59:25.687Z,27.70
2018-07-27T11:01:54.980Z,28.60
2018-07-27T11:04:24.268Z,24.30
2018-07-27T11:06:53.648Z,26.00
2018-07-27T11:09:22.898Z,31.00
2018-07-27T11:11:52.279Z,26.57
2018-07-27T11:14:21.723Z,28.90
2018-07-27T11:16:51.042Z,38.37
2018-07-27T11:19:20.341Z,38.23
2018-07-27T11:21:49.679Z,35.20
2018-07-27T11:24:19.048Z,33.97
2018-07-27T11:26:48.387Z,32.40
2018-07-27T11:29:17.762Z,32.50
2018-07-27T11:31:47.019Z,32.10
2018-07-27T11:34:16.332Z,32.50
2018-07-27T11:36:45.694Z,31.97
2018-07-27T11:39:15.127Z,32.23
2018-07-27T11:41:44.452Z,30.43
2018-07-27T11:44:13.775Z,30.00
2018-07-27T11:46:42.648Z,27.13
2018-07-27T11:49:12.084Z,28.00
2018-07-27T11:51:41.506Z,26.20
2018-07-27T11:54:11.277Z,26.07
2018-07-27T11:56:40.637Z,24.43
2018-07-27T11:59:10.071Z,24.60
2018-07-27T12:01:39.778Z,25.10
2018-07-27T12:04:09.415Z,25.50
2018-07-27T12:06:38.765Z,23.60
2018-07-27T12:09:10.443Z,24.70
2018-07-27T12:11:39.806Z,24.90
2018-07-27T12:14:09.257Z,22.50
2018-07-27T12:16:38.534Z,25.80
2018-07-27T12:19:07.931Z,21.67
2018-07-27T12:21:37.425Z,23.33
2018-07-27T12:24:06.633Z,22.77
2018-07-27T12:26:35.922Z,21.37
2018-07-27T12:29:05.223Z,19.90
2018-07-27T12:31:34.599Z,20.20
2018-07-27T12:34:03.930Z,17.87
2018-07-27T12:36:33.266Z,20.90
2018-07-27T12:39:02.843Z,19.40
2018-07-27T12:41:32.287Z,18.50
2018-07-27T12:44:01.123Z,20.00
2018-07-27T12:46:30.540Z,20.17
2018-07-27T12:49:00.044Z,15.00
2018-07-27T12:51:36.760Z,17.53
2018-07-27T12:54:06.360Z,18.30
2018-07-27T12:56:36.079Z,20.53
2018-07-27T12:59:04.973Z,18.80
2018-07-27T13:01:35.684Z,19.60
2018-07-27T13:04:05.389Z,22.50
2018-07-27T13:06:34.845Z,21.00
2018-07-27T13:09:05.095Z,21.63
2018-07-27T13:11:34.459Z,18.50
2018-07-27T13:14:04.326Z,16.03
2018-07-27T13:16:33.736Z,16.43
2018-07-27T13:19:03.373Z,17.40
2018-07-27T13:21:32.227Z,19.20
2018-07-27T13:24:02.739Z,21.97
2018-07-27T13:26:32.128Z,21.73
2018-07-27T13:29:01.436Z,18.30
2018-07-27T13:31:40.527Z,19.20
2018-07-27T13:34:51.917Z,19.37
2018-07-27T13:37:22.596Z,19.43
2018-07-27T13:42:24.103Z,21.17
2018-07-27T13:44:53.556Z,20.50
2018-07-27T13:47:23.117Z,18.47
2018-07-27T13:49:52.521Z,20.57
2018-07-27T13:52:21.873Z,20.50
2018-07-27T13:54:51.294Z,22.37
2018-07-27T13:57:20.557Z,20.47
2018-07-27T13:59:49.891Z,19.90
2018-07-27T14:02:19.237Z,18.43
2018-07-27T14:04:48.539Z,20.73
2018-07-27T14:07:18.048Z,18.40
2018-07-27T14:09:47.444Z,19.03
2018-07-27T14:12:16.745Z,18.30
2018-07-27T14:14:46.087Z,19.80
2018-07-27T14:17:15.418Z,18.70
2018-07-27T14:19:44.771Z,18.63
2018-07-27T14:22:14.130Z,21.63
2018-07-27T14:24:43.678Z,19.57
2018-07-27T14:27:13.032Z,20.40
2018-07-27T14:29:42.216Z,21.03
2018-07-27T14:32:11.160Z,20.23
2018-07-27T14:34:40.924Z,18.97
2018-07-27T14:37:09.769Z,19.07
2018-07-27T14:39:39.218Z,19.30
2018-07-27T14:42:08.640Z,16.93
2018-07-27T14:44:38.134Z,20.40
2018-07-27T14:47:06.971Z,19.90
2018-07-27T14:49:36.302Z,20.47
2018-07-27T14:52:05.705Z,19.83
2018-07-27T14:54:35.821Z,21.00
2018-07-27T14:57:05.189Z,19.03
2018-07-27T14:59:34.550Z,18.93
2018-07-27T15:02:03.319Z,17.80
2018-07-27T15:04:32.911Z,19.20
2018-07-27T15:07:02.278Z,19.70
2018-07-27T15:09:32.512Z,20.10
2018-07-27T15:12:02.042Z,21.67
2018-07-27T15:14:31.491Z,19.53
2018-07-27T15:17:00.748Z,18.00
2018-07-27T15:19:30.160Z,20.17
2018-07-27T15:21:59.739Z,20.17
2018-07-27T15:24:29.077Z,17.77
2018-07-27T15:26:58.472Z,20.13
2018-07-27T15:29:27.841Z,17.43
2018-07-27T15:31:57.613Z,16.60
2018-07-27T15:34:26.905Z,15.80
2018-07-27T15:36:56.076Z,17.73
2018-07-27T15:39:26.275Z,17.00
2018-07-27T15:41:55.670Z,15.30
2018-07-27T15:44:25.061Z,15.53
2018-07-27T15:46:55.398Z,14.30
2018-07-27T15:49:25.091Z,13.90
2018-07-27T15:51:54.561Z,16.60
2018-07-27T15:54:30.954Z,15.57
2018-07-27T15:56:59.994Z,15.27
2018-07-27T15:59:29.568Z,17.40
2018-07-27T16:01:58.859Z,14.30
2018-07-27T16:04:28.211Z,17.30
2018-07-27T16:06:57.555Z,18.40
2018-07-27T16:09:27.068Z,16.90
2018-07-27T16:11:56.598Z,16.30
2018-07-27T16:14:26.032Z,20.83
2018-07-27T16:16:55.770Z,19.20
2018-07-27T16:19:28.144Z,17.33
2018-07-27T16:21:59.206Z,19.80
2018-07-27T16:24:29.226Z,16.90
2018-07-27T16:26:58.683Z,18.47
2018-07-27T16:29:28.236Z,18.43
2018-07-27T16:31:58.070Z,19.07
2018-07-27T16:34:27.448Z,19.00
2018-07-27T16:36:56.772Z,20.80
2018-07-27T16:39:26.085Z,22.30
2018-07-27T16:41:55.535Z,20.60
2018-07-27T16:44:24.855Z,22.47
2018-07-27T16:46:54.320Z,22.83
2018-07-27T16:49:24.026Z,21.97
2018-07-27T16:51:53.424Z,22.50
2018-07-27T16:54:22.210Z,24.27
2018-07-27T16:56:51.567Z,25.63
2018-07-27T16:59:20.957Z,24.43
2018-07-27T17:01:50.323Z,22.57
2018-07-27T17:04:19.197Z,22.13
2018-07-27T17:06:48.581Z,24.73
2018-07-27T17:09:18.035Z,25.40
2018-07-27T17:11:47.407Z,23.73
2018-07-27T17:14:16.746Z,23.23
2018-07-27T17:16:46.133Z,24.97
2018-07-27T17:19:14.895Z,24.60
2018-07-27T17:21:44.215Z,23.40
2018-07-27T17:24:13.000Z,24.93
2018-07-27T17:26:41.846Z,26.10
2018-07-27T17:29:11.217Z,25.47
2018-07-27T17:31:40.620Z,26.33
2018-07-27T17:34:09.989Z,27.40
2018-07-27T17:36:38.789Z,26.37
2018-07-27T17:39:10.238Z,25.00
2018-07-27T17:41:39.500Z,24.17
2018-07-27T17:44:09.611Z,24.93
2018-07-27T17:46:39.089Z,23.60
2018-07-27T17:49:09.406Z,22.70
2018-07-27T17:51:38.807Z,25.00
2018-07-27T17:54:08.987Z,26.00
2018-07-27T17:56:38.327Z,26.00
2018-07-27T17:59:07.639Z,23.13
2018-07-27T18:01:36.933Z,23.80
2018-07-27T18:04:06.375Z,21.17
2018-07-27T18:06:35.736Z,19.97
2018-07-27T18:09:07.602Z,20.60
2018-07-27T18:11:37.028Z,19.60
2018-07-27T18:14:06.408Z,21.37
2018-07-27T18:16:35.728Z,20.80
2018-07-27T18:19:05.129Z,19.47
2018-07-27T18:21:34.491Z,22.33
2018-07-27T18:24:03.948Z,21.20
2018-07-27T18:26:33.287Z,20.87
2018-07-27T18:29:02.690Z,18.17
2018-07-27T18:31:31.557Z,18.90
2018-07-27T18:34:00.934Z,18.13
2018-07-27T18:36:30.225Z,16.33
2018-07-27T18:39:02.609Z,16.60
2018-07-27T18:41:32.026Z,17.57
2018-07-27T18:44:01.394Z,15.57
2018-07-27T18:46:30.722Z,13.90
2018-07-27T18:49:00.085Z,11.67
2018-07-27T18:51:29.445Z,13.80
2018-07-27T18:53:58.814Z,16.50
2018-07-27T18:56:28.243Z,16.10
2018-07-27T18:58:57.226Z,17.97
2018-07-27T19:01:26.639Z,19.30
2018-07-27T19:03:56.014Z,17.50
2018-07-27T19:06:25.361Z,19.83
2018-07-27T19:08:54.716Z,19.77
2018-07-27T19:11:24.856Z,20.63
2018-07-27T19:13:54.233Z,19.93
2018-07-27T19:16:23.706Z,21.43
2018-07-27T19:18:53.010Z,21.00
2018-07-27T19:21:22.350Z,21.10
2018-07-27T19:23:51.763Z,21.50
2018-07-27T19:26:21.145Z,22.00
2018-07-27T19:28:50.551Z,22.17
2018-07-27T19:31:19.997Z,22.47
2018-07-27T19:33:48.770Z,23.70
2018-07-27T19:36:18.090Z,21.90
2018-07-27T19:38:47.406Z,20.50
2018-07-27T19:41:16.708Z,23.33
2018-07-27T19:43:46.087Z,23.00
2018-07-27T19:46:15.360Z,22.53
2018-07-27T19:48:44.662Z,23.10
2018-07-27T19:51:14.044Z,22.63
2018-07-27T19:53:43.419Z,24.17
2018-07-27T19:56:12.767Z,22.93
2018-07-27T19:58:42.160Z,24.73
2018-07-27T20:01:11.497Z,23.00
2018-07-27T20:03:40.262Z,25.27
2018-07-27T20:06:09.734Z,22.87
2018-07-27T20:08:39.147Z,24.07
2018-07-27T20:11:08.546Z,24.70
2018-07-27T20:13:37.871Z,25.00
2018-07-27T20:16:07.190Z,24.63
2018-07-27T20:18:35.951Z,25.60
2018-07-27T20:21:05.341Z,25.43
2018-07-27T20:23:34.760Z,26.17
2018-07-27T20:26:04.217Z,24.07
2018-07-27T20:28:33.527Z,24.70
2018-07-27T20:31:02.853Z,24.97
2018-07-27T20:33:32.272Z,23.13
2018-07-27T20:36:01.624Z,25.50
2018-07-27T20:38:30.986Z,26.10
2018-07-27T20:40:59.848Z,25.13
2018-07-27T20:43:29.122Z,25.80
2018-07-27T20:45:58.564Z,27.07
2018-07-27T20:48:27.963Z,26.97
2018-07-27T20:50:57.357Z,25.83
2018-07-27T20:53:26.719Z,26.50
2018-07-27T20:55:56.111Z,26.10
2018-07-27T20:58:29.244Z,28.40
2018-07-27T21:00:58.823Z,26.47
2018-07-27T21:03:28.129Z,25.27
2018-07-27T21:05:57.511Z,26.50
2018-07-27T21:08:26.830Z,27.37
2018-07-27T21:10:56.165Z,27.77
2018-07-27T21:13:25.555Z,29.20
2018-07-27T21:15:55.056Z,29.07
2018-07-27T21:18:24.433Z,28.50
2018-07-27T21:20:53.991Z,28.07
2018-07-27T21:23:23.372Z,30.40
2018-07-27T21:25:52.730Z,28.00
2018-07-27T21:28:22.175Z,27.80
2018-07-27T21:30:51.556Z,26.97
2018-07-27T21:33:20.920Z,29.40
2018-07-27T21:35:49.669Z,28.60
2018-07-27T21:38:19.003Z,28.20
2018-07-27T21:40:47.807Z,26.70
2018-07-27T21:43:17.162Z,27.50
2018-07-27T21:45:46.568Z,26.87
2018-07-27T21:48:15.843Z,26.40
2018-07-27T21:50:45.250Z,28.43
2018-07-27T21:53:14.557Z,27.60
2018-07-27T21:55:43.865Z,28.50
2018-07-27T21:58:13.193Z,29.30
2018-07-27T22:00:42.602Z,28.97
2018-07-27T22:03:11.920Z,28.90
2018-07-27T22:05:41.273Z,28.00
2018-07-27T22:08:10.567Z,27.47
2018-07-27T22:10:39.899Z,26.90
2018-07-27T22:13:08.738Z,27.93
2018-07-27T22:15:38.131Z,26.00
2018-07-27T22:18:07.546Z,24.80
2018-07-27T22:20:36.941Z,24.30
2018-07-27T22:23:06.240Z,24.87
2018-07-27T22:25:35.533Z,26.12
2018-07-27T22:28:04.955Z,25.13
2018-07-27T22:30:34.412Z,26.33
2018-07-27T22:33:03.256Z,26.30
2018-07-27T22:35:32.647Z,26.43
2018-07-27T22:38:02.018Z,29.47
2018-07-27T22:40:31.410Z,29.70
2018-07-27T22:43:00.237Z,30.40
2018-07-27T22:45:29.626Z,31.87
2018-07-27T22:47:59.002Z,33.73
2018-07-27T22:50:27.820Z,34.13
2018-07-27T22:52:57.121Z,33.93
2018-07-27T22:55:26.501Z,34.70
2018-07-27T22:57:55.893Z,33.90
2018-07-27T23:00:25.233Z,33.87
2018-07-27T23:02:54.691Z,35.07
2018-07-27T23:05:23.510Z,34.50
2018-07-27T23:07:52.819Z,34.37
2018-07-27T23:10:22.166Z,33.07
2018-07-27T23:12:51.522Z,35.43
2018-07-27T23:15:20.987Z,34.37
2018-07-27T23:17:49.750Z,33.27
2018-07-27T23:20:19.037Z,34.70
2018-07-27T23:22:48.385Z,35.57
2018-07-27T23:25:17.742Z,34.33
2018-07-27T23:27:47.064Z,34.20
2018-07-27T23:30:16.391Z,32.40
2018-07-27T23:32:45.696Z,34.33
2018-07-27T23:35:15.033Z,33.93
2018-07-27T23:37:44.395Z,33.40
2018-07-27T23:40:13.747Z,35.87
2018-07-27T23:42:43.184Z,34.60
2018-07-27T23:45:12.006Z,31.50
2018-07-27T23:47:41.383Z,35.00
2018-07-27T23:50:10.218Z,38.20
2018-07-27T23:52:39.611Z,36.37
2018-07-27T23:55:09.002Z,35.53
2018-07-27T23:57:38.305Z,32.50
